createdAt,value
2018-02-27T00:00:45.665Z,19.40
2018-02-27T00:03:13.448Z,14.70
2018-02-27T00:05:41.221Z,13.37
2018-02-27T00:08:08.870Z,17.43
2018-02-27T00:10:36.681Z,18.10
2018-02-27T00:13:04.420Z,16.43
2018-02-27T00:15:32.141Z,16.07
2018-02-27T00:17:59.764Z,16.83
2018-02-27T00:20:27.467Z,17.97
2018-02-27T00:22:55.052Z,12.03
2018-02-27T00:25:22.938Z,11.73
2018-02-27T00:27:50.710Z,9.13
2018-02-27T00:30:18.489Z,14.43
2018-02-27T00:32:46.178Z,14.23
2018-02-27T00:35:13.942Z,16.30
2018-02-27T00:37:41.616Z,17.60
2018-02-27T00:40:09.450Z,8.97
2018-02-27T00:42:37.273Z,13.83
2018-02-27T00:45:05.008Z,11.37
2018-02-27T00:47:32.829Z,9.43
2018-02-27T00:50:00.608Z,15.87
2018-02-27T00:52:28.209Z,15.70
2018-02-27T00:54:55.853Z,12.77
2018-02-27T00:57:23.518Z,8.50
2018-02-27T00:59:51.276Z,13.67
2018-02-27T01:02:18.968Z,13.47
2018-02-27T01:04:46.599Z,7.60
2018-02-27T01:07:14.329Z,12.53
2018-02-27T01:09:41.937Z,12.97
2018-02-27T01:12:09.686Z,8.00
2018-02-27T01:14:37.468Z,8.83
2018-02-27T01:17:05.127Z,8.40
2018-02-27T01:19:32.803Z,12.23
2018-02-27T01:22:00.462Z,11.40
2018-02-27T01:24:28.268Z,10.70
2018-02-27T01:26:56.046Z,8.40
2018-02-27T01:29:23.933Z,9.80
2018-02-27T01:31:51.526Z,9.33
2018-02-27T01:34:19.232Z,9.20
2018-02-27T01:36:46.943Z,6.10
2018-02-27T01:39:14.626Z,5.60
2018-02-27T01:41:42.252Z,7.70
2018-02-27T01:44:09.971Z,6.93
2018-02-27T01:46:37.756Z,8.20
2018-02-27T01:49:05.541Z,7.10
2018-02-27T01:51:33.312Z,3.90
2018-02-27T01:54:00.980Z,7.23
2018-02-27T01:56:28.731Z,6.70
2018-02-27T01:58:56.432Z,8.80
2018-02-27T02:01:24.101Z,7.13
2018-02-27T02:03:51.779Z,4.60
2018-02-27T02:06:19.543Z,10.50
2018-02-27T02:08:47.124Z,9.50
2018-02-27T02:11:14.919Z,6.13
2018-02-27T02:13:42.594Z,10.40
2018-02-27T02:16:10.183Z,5.93
2018-02-27T02:18:37.826Z,8.10
2018-02-27T02:21:05.514Z,7.10
2018-02-27T02:23:33.295Z,11.30
2018-02-27T02:26:01.069Z,8.70
2018-02-27T02:28:28.816Z,8.60
2018-02-27T02:30:56.628Z,7.77
2018-02-27T02:33:24.308Z,5.07
2018-02-27T02:35:52.060Z,9.60
2018-02-27T02:38:19.860Z,8.70
2018-02-27T02:40:47.749Z,11.03
2018-02-27T02:43:15.621Z,10.37
2018-02-27T02:45:43.399Z,8.67
2018-02-27T02:48:11.177Z,10.00
2018-02-27T02:50:39.058Z,11.30
2018-02-27T02:53:06.653Z,9.07
2018-02-27T02:55:34.305Z,8.40
2018-02-27T02:58:02.071Z,7.93
2018-02-27T03:00:29.821Z,9.13
2018-02-27T03:02:57.640Z,9.13
2018-02-27T03:05:25.407Z,7.10
2018-02-27T03:07:53.196Z,7.47
2018-02-27T03:10:20.939Z,6.00
2018-02-27T03:12:48.749Z,9.87
2018-02-27T03:15:16.409Z,5.33
2018-02-27T03:17:44.088Z,8.90
2018-02-27T03:20:11.829Z,7.83
2018-02-27T03:22:39.438Z,6.10
2018-02-27T03:25:07.048Z,8.20
2018-02-27T03:27:34.694Z,9.27
2018-02-27T03:30:02.480Z,7.60
2018-02-27T03:32:30.254Z,8.90
2018-02-27T03:34:58.034Z,8.27
2018-02-27T03:37:25.711Z,7.70
2018-02-27T03:39:53.432Z,7.50
2018-02-27T03:42:21.046Z,6.97
2018-02-27T03:44:48.838Z,7.37
2018-02-27T03:47:16.619Z,10.27
2018-02-27T03:49:44.284Z,8.53
2018-02-27T03:52:12.017Z,8.47
2018-02-27T03:54:39.652Z,6.50
2018-02-27T03:57:07.420Z,7.50
2018-02-27T03:59:35.298Z,5.10
2018-02-27T04:02:02.958Z,5.47
2018-02-27T04:04:30.647Z,9.27
2018-02-27T04:06:58.321Z,9.20
2018-02-27T04:09:26.000Z,7.03
2018-02-27T04:11:53.880Z,8.37
2018-02-27T04:14:21.863Z,6.90
2018-02-27T04:16:49.522Z,8.30
2018-02-27T04:19:17.200Z,10.63
2018-02-27T04:21:44.886Z,8.20
2018-02-27T04:24:12.552Z,11.30
2018-02-27T04:26:40.235Z,10.27
2018-02-27T04:29:07.902Z,6.17
2018-02-27T04:31:35.687Z,10.53
2018-02-27T04:34:03.313Z,8.00
2018-02-27T04:36:31.110Z,11.07
2018-02-27T04:38:58.696Z,11.13
2018-02-27T04:41:26.276Z,12.00
2018-02-27T04:43:54.067Z,10.37
2018-02-27T04:46:21.741Z,11.13
2018-02-27T04:48:49.330Z,9.80
2018-02-27T04:51:17.231Z,9.83
2018-02-27T04:53:44.974Z,6.70
2018-02-27T04:56:12.660Z,7.10
2018-02-27T04:58:40.378Z,5.67
2018-02-27T05:01:08.101Z,4.43
2018-02-27T05:03:35.717Z,6.80
2018-02-27T05:06:03.404Z,5.07
2018-02-27T05:08:31.049Z,8.43
2018-02-27T05:10:58.701Z,7.07
2018-02-27T05:13:26.279Z,5.30
2018-02-27T05:15:54.056Z,6.80
2018-02-27T05:18:21.780Z,7.50
2018-02-27T05:20:49.608Z,6.07
2018-02-27T05:23:17.285Z,4.90
2018-02-27T05:25:44.882Z,7.50
2018-02-27T05:28:12.739Z,8.27
2018-02-27T05:30:40.462Z,8.20
2018-02-27T05:33:08.041Z,8.80
2018-02-27T05:35:35.757Z,5.10
2018-02-27T05:38:03.643Z,7.80
2018-02-27T05:40:31.312Z,6.17
2018-02-27T05:42:58.994Z,8.70
2018-02-27T05:45:26.658Z,10.90
2018-02-27T05:47:54.340Z,10.97
2018-02-27T05:50:22.016Z,8.33
2018-02-27T05:52:49.761Z,7.83
2018-02-27T05:55:17.576Z,5.30
2018-02-27T05:57:45.317Z,8.13
2018-02-27T06:00:13.026Z,7.97
2018-02-27T06:02:40.733Z,7.23
2018-02-27T06:05:08.317Z,6.23
2018-02-27T06:07:36.037Z,13.90
2018-02-27T06:10:03.732Z,11.60
2018-02-27T06:12:31.510Z,10.17
2018-02-27T06:14:59.280Z,5.60
2018-02-27T06:17:27.022Z,3.60
2018-02-27T06:19:54.842Z,6.60
2018-02-27T06:22:22.511Z,5.90
2018-02-27T06:24:50.247Z,7.17
2018-02-27T06:27:18.076Z,10.07
2018-02-27T06:29:45.855Z,10.90
2018-02-27T06:32:13.732Z,10.80
2018-02-27T06:34:41.511Z,9.43
2018-02-27T06:37:09.251Z,12.60
2018-02-27T06:39:36.943Z,7.07
2018-02-27T06:42:04.737Z,10.30
2018-02-27T06:44:32.476Z,6.70
2018-02-27T06:47:00.295Z,8.97
2018-02-27T06:49:28.070Z,7.33
2018-02-27T06:51:55.747Z,11.83
2018-02-27T06:54:24.023Z,11.07
2018-02-27T06:56:51.819Z,10.13
2018-02-27T06:59:19.478Z,10.10
2018-02-27T07:01:47.120Z,5.60
2018-02-27T07:04:14.826Z,10.00
2018-02-27T07:06:42.617Z,9.57
2018-02-27T07:09:10.295Z,10.77
2018-02-27T07:11:38.032Z,9.77
2018-02-27T07:14:05.742Z,7.57
2018-02-27T07:16:33.525Z,12.77
2018-02-27T07:19:01.353Z,9.80
2018-02-27T07:21:29.080Z,11.80
2018-02-27T07:23:56.748Z,11.90
2018-02-27T07:26:24.532Z,11.57
2018-02-27T07:28:52.307Z,8.10
2018-02-27T07:31:19.935Z,8.63
2018-02-27T07:33:47.546Z,6.03
2018-02-27T07:36:15.321Z,11.10
2018-02-27T07:38:43.009Z,12.23
2018-02-27T07:41:10.747Z,11.30
2018-02-27T07:43:38.567Z,8.43
2018-02-27T07:46:06.306Z,9.07
2018-02-27T07:48:34.120Z,5.93
2018-02-27T07:51:01.818Z,6.73
2018-02-27T07:53:29.414Z,10.03
2018-02-27T07:55:57.037Z,9.47
2018-02-27T07:58:24.694Z,10.47
2018-02-27T08:00:52.495Z,7.40
2018-02-27T08:03:20.221Z,8.87
2018-02-27T08:05:48.058Z,6.07
2018-02-27T08:08:15.827Z,7.53
2018-02-27T08:10:43.498Z,9.67
2018-02-27T08:13:11.285Z,6.70
2018-02-27T08:15:38.962Z,9.87
2018-02-27T08:18:06.603Z,12.37
2018-02-27T08:20:34.415Z,6.63
2018-02-27T08:23:02.077Z,8.10
2018-02-27T08:25:29.851Z,5.60
2018-02-27T08:27:57.608Z,7.27
2018-02-27T08:30:25.314Z,6.17
2018-02-27T08:32:52.997Z,8.10
2018-02-27T08:35:20.664Z,3.83
2018-02-27T08:37:48.447Z,6.13
2018-02-27T08:40:16.191Z,6.37
2018-02-27T08:42:43.886Z,4.73
2018-02-27T08:45:11.624Z,6.40
2018-02-27T08:47:39.241Z,6.27
2018-02-27T08:50:06.980Z,6.43
2018-02-27T08:52:34.803Z,7.53
2018-02-27T08:55:02.635Z,4.30
2018-02-27T08:57:30.464Z,3.83
2018-02-27T08:59:58.110Z,5.70
2018-02-27T09:02:25.706Z,3.97
2018-02-27T09:04:53.395Z,5.73
2018-02-27T09:07:21.265Z,6.23
2018-02-27T09:09:49.150Z,4.53
2018-02-27T09:12:16.924Z,8.57
2018-02-27T09:14:44.536Z,7.60
2018-02-27T09:17:12.169Z,8.13
2018-02-27T09:19:39.951Z,5.20
2018-02-27T09:22:07.728Z,5.37
2018-02-27T09:24:35.612Z,7.30
2018-02-27T09:27:03.391Z,8.30
2018-02-27T09:29:31.112Z,6.53
2018-02-27T09:31:58.826Z,8.17
2018-02-27T09:34:26.967Z,8.00
2018-02-27T09:36:54.599Z,7.47
2018-02-27T09:39:22.381Z,8.30
2018-02-27T09:41:49.966Z,7.07
2018-02-27T09:44:17.833Z,4.63
2018-02-27T09:46:45.552Z,7.10
2018-02-27T09:49:13.151Z,7.97
2018-02-27T09:51:40.957Z,7.43
2018-02-27T09:54:08.624Z,7.40
2018-02-27T09:56:36.310Z,6.17
2018-02-27T09:59:04.031Z,7.23
2018-02-27T10:01:31.751Z,4.77
2018-02-27T10:03:59.329Z,4.53
2018-02-27T10:06:27.010Z,3.53
2018-02-27T10:08:54.788Z,4.40
2018-02-27T10:11:22.461Z,3.57
2018-02-27T10:13:50.208Z,3.57
2018-02-27T10:16:17.793Z,5.90
2018-02-27T10:18:45.592Z,4.47
2018-02-27T10:21:13.265Z,7.07
2018-02-27T10:23:40.920Z,4.03
2018-02-27T10:26:08.618Z,5.50
2018-02-27T10:28:36.400Z,6.90
2018-02-27T10:31:04.119Z,6.10
2018-02-27T10:33:31.836Z,7.80
2018-02-27T10:35:59.474Z,6.27
2018-02-27T10:38:27.073Z,7.40
2018-02-27T10:40:54.717Z,7.40
2018-02-27T10:43:22.501Z,7.00
2018-02-27T10:45:50.083Z,7.07
2018-02-27T10:48:17.781Z,8.10
2018-02-27T10:50:45.578Z,9.93
2018-02-27T10:53:13.317Z,10.70
2018-02-27T10:55:41.030Z,9.53
2018-02-27T10:58:08.910Z,12.20
2018-02-27T11:00:42.165Z,9.30
2018-02-27T11:03:09.994Z,9.13
2018-02-27T11:05:37.726Z,6.93
2018-02-27T11:08:05.343Z,5.97
2018-02-27T11:10:33.125Z,6.60
2018-02-27T11:13:00.798Z,4.83
2018-02-27T11:15:28.583Z,4.73
2018-02-27T11:17:56.213Z,5.60
2018-02-27T11:20:23.862Z,7.07
2018-02-27T11:22:51.483Z,4.77
2018-02-27T11:25:19.284Z,3.50
2018-02-27T11:27:47.016Z,3.90
2018-02-27T11:30:14.836Z,4.97
2018-02-27T11:32:42.613Z,3.83
2018-02-27T11:35:10.283Z,4.50
2018-02-27T11:37:37.969Z,5.60
2018-02-27T11:40:05.740Z,4.97
2018-02-27T11:42:33.415Z,2.87
2018-02-27T11:45:01.284Z,3.87
2018-02-27T11:47:28.967Z,3.93
2018-02-27T11:49:56.641Z,5.37
2018-02-27T11:52:24.319Z,2.30
2018-02-27T11:54:52.097Z,4.50
2018-02-27T11:57:19.770Z,2.73
2018-02-27T11:59:47.400Z,3.80
2018-02-27T12:02:15.005Z,3.20
2018-02-27T12:04:42.799Z,4.50
2018-02-27T12:07:10.463Z,5.87
2018-02-27T12:09:38.252Z,2.73
2018-02-27T12:12:05.933Z,2.63
2018-02-27T12:14:34.521Z,4.00
2018-02-27T12:17:02.302Z,3.30
2018-02-27T12:19:30.081Z,4.27
2018-02-27T12:21:57.829Z,4.17
2018-02-27T12:24:25.594Z,3.97
2018-02-27T12:26:53.304Z,2.90
2018-02-27T12:29:20.969Z,3.00
2018-02-27T12:31:48.666Z,3.60
2018-02-27T12:34:16.406Z,5.27
2018-02-27T12:36:44.116Z,3.60
2018-02-27T12:39:11.894Z,6.47
2018-02-27T12:41:39.776Z,3.33
2018-02-27T12:44:07.497Z,4.70
2018-02-27T12:46:35.122Z,4.20
2018-02-27T12:49:02.798Z,4.00
2018-02-27T12:51:30.683Z,5.20
2018-02-27T12:53:58.355Z,2.80
2018-02-27T12:56:26.132Z,4.63
2018-02-27T12:58:53.907Z,4.43
2018-02-27T13:01:21.500Z,1.67
2018-02-27T13:03:49.262Z,2.13
2018-02-27T13:06:16.917Z,4.10
2018-02-27T13:08:44.493Z,3.77
2018-02-27T13:11:12.088Z,2.80
2018-02-27T13:13:39.846Z,3.23
2018-02-27T13:16:07.685Z,3.20
2018-02-27T13:18:35.317Z,2.60
2018-02-27T13:21:03.094Z,3.30
2018-02-27T13:23:30.865Z,2.67
2018-02-27T13:25:58.647Z,3.93
2018-02-27T13:28:26.392Z,4.10
2018-02-27T13:30:54.091Z,3.13
2018-02-27T13:33:21.822Z,3.63
2018-02-27T13:35:49.457Z,4.70
2018-02-27T13:38:17.277Z,4.30
2018-02-27T13:40:44.892Z,5.93
2018-02-27T13:43:12.681Z,8.20
2018-02-27T13:45:40.461Z,7.77
2018-02-27T13:48:08.198Z,6.67
2018-02-27T13:50:35.911Z,6.43
2018-02-27T13:53:03.584Z,5.87
2018-02-27T13:55:31.320Z,9.40
2018-02-27T13:57:59.159Z,6.03
2018-02-27T14:00:26.824Z,6.27
2018-02-27T14:02:54.482Z,7.40
2018-02-27T14:05:22.068Z,6.73
2018-02-27T14:07:49.943Z,6.57
2018-02-27T14:10:17.721Z,4.63
2018-02-27T14:12:45.391Z,5.87
2018-02-27T14:15:13.063Z,5.00
2018-02-27T14:17:40.855Z,3.70
2018-02-27T14:20:08.516Z,4.00
2018-02-27T14:22:36.121Z,3.80
2018-02-27T14:25:03.778Z,2.80
2018-02-27T14:27:31.661Z,2.60
2018-02-27T14:29:59.398Z,3.43
2018-02-27T14:32:27.248Z,3.70
2018-02-27T14:34:54.893Z,4.67
2018-02-27T14:37:22.623Z,4.33
2018-02-27T14:39:50.387Z,6.13
2018-02-27T14:42:18.114Z,2.40
2018-02-27T14:44:45.902Z,5.43
2018-02-27T14:47:13.636Z,10.00
2018-02-27T14:49:41.497Z,6.07
2018-02-27T14:52:09.094Z,7.20
2018-02-27T14:54:36.903Z,5.00
2018-02-27T14:57:04.600Z,4.30
2018-02-27T14:59:32.201Z,5.73
2018-02-27T15:02:00.035Z,4.83
2018-02-27T15:04:27.695Z,5.07
2018-02-27T15:06:55.274Z,12.33
2018-02-27T15:09:22.964Z,4.93
2018-02-27T15:11:50.798Z,5.90
2018-02-27T15:14:18.613Z,3.20
2018-02-27T15:16:46.389Z,2.70
2018-02-27T15:19:14.168Z,4.60
2018-02-27T15:21:41.952Z,5.40
2018-02-27T15:24:09.542Z,5.20
2018-02-27T15:26:37.163Z,2.93
2018-02-27T15:29:04.977Z,4.37
2018-02-27T15:31:32.560Z,3.27
2018-02-27T15:34:00.225Z,5.13
2018-02-27T15:36:27.878Z,3.67
2018-02-27T15:38:55.575Z,3.83
2018-02-27T15:41:23.251Z,4.23
2018-02-27T15:43:51.025Z,3.90
2018-02-27T15:46:18.877Z,3.17
2018-02-27T15:48:46.683Z,2.93
2018-02-27T15:51:14.462Z,2.70
2018-02-27T15:53:42.235Z,5.03
2018-02-27T15:56:10.017Z,4.80
2018-02-27T15:58:37.594Z,6.43
2018-02-27T16:01:05.237Z,4.10
2018-02-27T16:03:33.043Z,6.60
2018-02-27T16:06:00.701Z,5.30
2018-02-27T16:08:28.451Z,6.60
2018-02-27T16:10:56.171Z,5.70
2018-02-27T16:13:24.251Z,4.73
2018-02-27T16:15:52.089Z,5.97
2018-02-27T16:18:19.887Z,6.90
2018-02-27T16:20:47.584Z,5.17
2018-02-27T16:23:15.325Z,6.97
2018-02-27T16:25:43.159Z,3.80
2018-02-27T16:28:10.824Z,10.37
2018-02-27T16:30:38.606Z,7.63
2018-02-27T16:33:06.283Z,6.33
2018-02-27T16:35:33.946Z,6.47
2018-02-27T16:38:01.734Z,4.50
2018-02-27T16:40:29.615Z,6.37
2018-02-27T16:42:57.454Z,7.17
2018-02-27T16:45:25.067Z,6.73
2018-02-27T16:47:52.842Z,7.97
2018-02-27T16:50:20.676Z,8.03
2018-02-27T16:52:51.141Z,9.33
2018-02-27T16:55:18.757Z,11.10
2018-02-27T16:57:46.399Z,12.07
2018-02-27T17:00:14.178Z,13.37
2018-02-27T17:02:41.968Z,13.00
2018-02-27T17:05:09.744Z,13.50
2018-02-27T17:07:37.405Z,12.17
2018-02-27T17:10:05.066Z,12.93
2018-02-27T17:12:32.795Z,14.67
2018-02-27T17:15:00.518Z,20.10
2018-02-27T17:17:28.397Z,15.60
2018-02-27T17:19:56.309Z,10.57
2018-02-27T17:22:23.970Z,13.27
2018-02-27T17:24:51.757Z,12.17
2018-02-27T17:27:19.527Z,12.07
2018-02-27T17:29:47.211Z,13.30
2018-02-27T17:32:14.888Z,13.73
2018-02-27T17:34:42.766Z,13.30
2018-02-27T17:37:10.441Z,11.10
2018-02-27T17:39:38.221Z,22.93
2018-02-27T17:42:06.108Z,18.73
2018-02-27T17:44:33.706Z,14.73
2018-02-27T17:47:01.528Z,12.07
2018-02-27T17:49:29.121Z,10.00
2018-02-27T17:51:56.766Z,11.40
2018-02-27T17:54:25.020Z,12.90
2018-02-27T17:56:52.664Z,13.90
2018-02-27T17:59:20.549Z,10.67
2018-02-27T18:01:48.212Z,12.07
2018-02-27T18:04:15.896Z,11.53
2018-02-27T18:06:43.679Z,12.63
2018-02-27T18:09:11.457Z,12.77
2018-02-27T18:11:39.130Z,10.40
2018-02-27T18:14:06.900Z,9.80
2018-02-27T18:16:34.571Z,9.60
2018-02-27T18:19:02.358Z,11.57
2018-02-27T18:21:30.097Z,12.20
2018-02-27T18:23:57.816Z,17.07
2018-02-27T18:26:25.694Z,15.27
2018-02-27T18:28:53.366Z,13.17
2018-02-27T18:31:21.148Z,18.80
2018-02-27T18:33:48.802Z,12.10
2018-02-27T18:36:16.605Z,19.50
2018-02-27T18:38:44.584Z,17.03
2018-02-27T18:41:12.226Z,13.80
2018-02-27T18:43:40.040Z,14.20
2018-02-27T18:46:07.710Z,17.10
2018-02-27T18:48:35.597Z,11.73
2018-02-27T18:51:03.186Z,11.47
2018-02-27T18:53:30.783Z,11.27
2018-02-27T18:55:59.232Z,16.23
2018-02-27T18:58:27.531Z,12.43
2018-02-27T19:00:55.405Z,12.43
2018-02-27T19:03:23.157Z,18.00
2018-02-27T19:05:50.963Z,10.63
2018-02-27T19:08:18.843Z,5.83
2018-02-27T19:10:46.614Z,7.07
2018-02-27T19:13:14.389Z,6.40
2018-02-27T19:15:42.052Z,8.40
2018-02-27T19:18:09.845Z,7.57
2018-02-27T19:20:37.725Z,10.30
2018-02-27T19:23:05.405Z,4.20
2018-02-27T19:25:33.498Z,8.47
2018-02-27T19:28:01.159Z,2.93
2018-02-27T19:30:28.837Z,5.63
2018-02-27T19:32:56.693Z,6.80
2018-02-27T19:35:24.471Z,13.43
2018-02-27T19:37:53.764Z,9.13
2018-02-27T19:40:21.921Z,8.77
2018-02-27T19:42:49.775Z,7.83
2018-02-27T19:45:17.398Z,5.47
2018-02-27T19:47:45.017Z,6.27
2018-02-27T19:50:12.904Z,6.60
2018-02-27T19:52:40.682Z,6.53
2018-02-27T19:55:08.354Z,7.13
2018-02-27T19:57:36.017Z,7.67
2018-02-27T20:00:03.707Z,7.60
2018-02-27T20:02:31.327Z,7.57
2018-02-27T20:04:58.979Z,7.37
2018-02-27T20:07:26.635Z,7.40
2018-02-27T20:09:54.368Z,6.47
2018-02-27T20:12:22.085Z,8.53
2018-02-27T20:14:49.805Z,9.37
2018-02-27T20:17:17.436Z,9.97
2018-02-27T20:19:45.086Z,9.47
2018-02-27T20:22:12.888Z,8.90
2018-02-27T20:24:40.473Z,6.50
2018-02-27T20:27:08.346Z,8.50
2018-02-27T20:29:36.226Z,8.83
2018-02-27T20:32:03.972Z,8.37
2018-02-27T20:34:33.376Z,6.87
2018-02-27T20:37:00.989Z,7.07
2018-02-27T20:39:28.772Z,8.60
2018-02-27T20:41:56.650Z,7.40
2018-02-27T20:44:24.259Z,11.30
2018-02-27T20:46:51.886Z,9.00
2018-02-27T20:49:19.537Z,9.00
2018-02-27T20:51:47.240Z,6.60
2018-02-27T20:54:14.840Z,7.50
2018-02-27T20:56:42.490Z,4.40
2018-02-27T20:59:10.172Z,8.23
2018-02-27T21:01:38.056Z,8.37
2018-02-27T21:04:05.728Z,6.47
2018-02-27T21:06:33.465Z,8.97
2018-02-27T21:09:01.492Z,8.63
2018-02-27T21:11:29.272Z,12.93
2018-02-27T21:13:57.258Z,7.67
2018-02-27T21:16:24.981Z,10.73
2018-02-27T21:18:52.720Z,10.67
2018-02-27T21:21:20.372Z,6.40
2018-02-27T21:23:48.157Z,6.80
2018-02-27T21:26:16.224Z,9.30
2018-02-27T21:28:44.826Z,6.00
2018-02-27T21:31:12.721Z,11.77
2018-02-27T21:33:40.496Z,10.10
2018-02-27T21:36:08.164Z,9.57
2018-02-27T21:38:36.077Z,10.50
2018-02-27T21:41:04.080Z,5.87
2018-02-27T21:43:31.713Z,10.73
2018-02-27T21:45:59.457Z,8.30
2018-02-27T21:48:27.171Z,5.70
2018-02-27T21:50:54.844Z,9.97
2018-02-27T21:53:22.425Z,5.07
2018-02-27T21:55:50.177Z,6.20
2018-02-27T21:58:17.935Z,3.73
2018-02-27T22:00:45.513Z,6.90
2018-02-27T22:03:13.517Z,5.73
2018-02-27T22:05:42.121Z,5.90
2018-02-27T22:08:09.784Z,8.03
2018-02-27T22:10:37.578Z,5.57
2018-02-27T22:13:05.306Z,9.10
2018-02-27T22:15:33.034Z,7.53
2018-02-27T22:18:00.810Z,8.73
2018-02-27T22:20:29.610Z,6.17
2018-02-27T22:22:57.387Z,10.97
2018-02-27T22:25:25.868Z,8.77
2018-02-27T22:27:53.520Z,8.83
2018-02-27T22:30:21.334Z,6.10
2018-02-27T22:32:49.214Z,6.77
2018-02-27T22:35:16.996Z,6.50
2018-02-27T22:37:44.743Z,10.23
2018-02-27T22:40:12.429Z,6.93
2018-02-27T22:42:40.495Z,8.67
2018-02-27T22:45:08.411Z,7.13
2018-02-27T22:47:36.004Z,4.27
2018-02-27T22:50:03.722Z,5.90
2018-02-27T22:52:31.540Z,6.00
2018-02-27T22:54:59.293Z,7.37
2018-02-27T22:57:26.893Z,5.40
2018-02-27T22:59:54.735Z,8.80
2018-02-27T23:02:22.434Z,6.93
2018-02-27T23:04:50.224Z,6.27
2018-02-27T23:07:17.898Z,4.27
2018-02-27T23:09:45.876Z,6.50
2018-02-27T23:12:13.663Z,7.40
2018-02-27T23:14:41.441Z,8.27
2018-02-27T23:17:09.939Z,4.67
2018-02-27T23:19:37.715Z,7.93
2018-02-27T23:22:05.315Z,6.73
2018-02-27T23:24:49.289Z,6.30
2018-02-27T23:27:19.379Z,7.50
2018-02-27T23:29:48.139Z,6.50
2018-02-27T23:32:16.980Z,8.87
2018-02-27T23:34:51.053Z,6.53
2018-02-27T23:37:18.641Z,4.73
2018-02-27T23:39:46.361Z,5.57
2018-02-27T23:42:14.085Z,7.87
2018-02-27T23:44:41.822Z,4.13
2018-02-27T23:47:09.704Z,5.73
2018-02-27T23:49:37.364Z,6.83
2018-02-27T23:52:05.145Z,1.90
2018-02-27T23:54:33.126Z,5.63
2018-02-27T23:57:00.859Z,3.47
2018-02-27T23:59:28.685Z,5.23
